sensor_id;sensor_type;location;lat;lon;timestamp;P1;durP1;ratioP1;P2;durP2;ratioP2
32637;SDS011;19045;52.268;10.506;2023-05-18T00:01:22;17.30;;;4.32;;
32637;SDS011;19045;52.268;10.506;2023-05-18T00:03:50;15.18;;;3.78;;
32637;SDS011;19045;52.268;10.506;2023-05-18T00:06:18;13.35;;;4.43;;
32637;SDS011;19045;52.268;10.506;2023-05-18T00:08:46;15.93;;;3.88;;
32637;SDS011;19045;52.268;10.506;2023-05-18T00:11:13;12.48;;;4.25;;
32637;SDS011;19045;52.268;10.506;2023-05-18T00:13:40;16.42;;;4.63;;
32637;SDS011;19045;52.268;10.506;2023-05-18T00:16:06;13.40;;;4.35;;
32637;SDS011;19045;52.268;10.506;2023-05-18T00:18:33;11.45;;;4.00;;
32637;SDS011;19045;52.268;10.506;2023-05-18T00:21:01;16.02;;;4.25;;
32637;SDS011;19045;52.268;10.506;2023-05-18T00:23:28;13.98;;;4.15;;
32637;SDS011;19045;52.268;10.506;2023-05-18T00:25:56;12.00;;;3.88;;
32637;SDS011;19045;52.268;10.506;2023-05-18T00:28:23;14.93;;;4.13;;
32637;SDS011;19045;52.268;10.506;2023-05-18T00:30:50;13.73;;;3.88;;
32637;SDS011;19045;52.268;10.506;2023-05-18T00:33:17;9.77;;;3.75;;
32637;SDS011;19045;52.268;10.506;2023-05-18T00:35:43;11.52;;;4.00;;
32637;SDS011;19045;52.268;10.506;2023-05-18T00:38:11;11.60;;;3.80;;
32637;SDS011;19045;52.268;10.506;2023-05-18T00:40:39;8.48;;;4.03;;
32637;SDS011;19045;52.268;10.506;2023-05-18T00:43:06;13.27;;;3.90;;
32637;SDS011;19045;52.268;10.506;2023-05-18T00:45:33;9.98;;;3.78;;
32637;SDS011;19045;52.268;10.506;2023-05-18T00:47:59;8.60;;;3.53;;
32637;SDS011;19045;52.268;10.506;2023-05-18T00:50:26;15.05;;;5.03;;
32637;SDS011;19045;52.268;10.506;2023-05-18T00:52:53;9.93;;;4.25;;
32637;SDS011;19045;52.268;10.506;2023-05-18T00:55:21;26.70;;;4.57;;
32637;SDS011;19045;52.268;10.506;2023-05-18T00:57:48;17.95;;;4.88;;
32637;SDS011;19045;52.268;10.506;2023-05-18T01:00:16;10.88;;;4.10;;
32637;SDS011;19045;52.268;10.506;2023-05-18T01:02:44;9.95;;;3.65;;
32637;SDS011;19045;52.268;10.506;2023-05-18T01:05:11;17.45;;;4.43;;
32637;SDS011;19045;52.268;10.506;2023-05-18T01:07:38;12.27;;;4.25;;
32637;SDS011;19045;52.268;10.506;2023-05-18T01:10:06;14.43;;;4.57;;
32637;SDS011;19045;52.268;10.506;2023-05-18T01:12:36;13.25;;;4.10;;
32637;SDS011;19045;52.268;10.506;2023-05-18T01:15:09;10.75;;;4.18;;
32637;SDS011;19045;52.268;10.506;2023-05-18T01:17:42;11.13;;;3.67;;
32637;SDS011;19045;52.268;10.506;2023-05-18T01:20:27;14.77;;;4.13;;
32637;SDS011;19045;52.268;10.506;2023-05-18T01:26:11;19.58;;;4.53;;
32637;SDS011;19045;52.268;10.506;2023-05-18T01:28:39;13.20;;;3.80;;
32637;SDS011;19045;52.268;10.506;2023-05-18T01:31:10;15.30;;;4.72;;
32637;SDS011;19045;52.268;10.506;2023-05-18T01:33:37;15.05;;;4.35;;
32637;SDS011;19045;52.268;10.506;2023-05-18T01:36:04;10.73;;;4.80;;
32637;SDS011;19045;52.268;10.506;2023-05-18T01:38:31;17.58;;;4.88;;
32637;SDS011;19045;52.268;10.506;2023-05-18T01:41:00;13.35;;;4.68;;
32637;SDS011;19045;52.268;10.506;2023-05-18T01:43:34;12.68;;;5.10;;
32637;SDS011;19045;52.268;10.506;2023-05-18T01:46:04;9.60;;;4.28;;
32637;SDS011;19045;52.268;10.506;2023-05-18T01:48:38;18.50;;;4.90;;
32637;SDS011;19045;52.268;10.506;2023-05-18T01:51:13;13.95;;;5.32;;
32637;SDS011;19045;52.268;10.506;2023-05-18T01:53:48;17.95;;;5.43;;
32637;SDS011;19045;52.268;10.506;2023-05-18T01:56:18;13.75;;;4.93;;
32637;SDS011;19045;52.268;10.506;2023-05-18T01:58:47;8.60;;;4.10;;
32637;SDS011;19045;52.268;10.506;2023-05-18T02:01:15;12.68;;;4.80;;
32637;SDS011;19045;52.268;10.506;2023-05-18T02:03:44;13.63;;;4.95;;
32637;SDS011;19045;52.268;10.506;2023-05-18T02:06:10;13.10;;;4.63;;
32637;SDS011;19045;52.268;10.506;2023-05-18T02:08:37;11.68;;;4.35;;
32637;SDS011;19045;52.268;10.506;2023-05-18T02:11:03;17.15;;;4.82;;
32637;SDS011;19045;52.268;10.506;2023-05-18T02:13:30;12.85;;;4.68;;
32637;SDS011;19045;52.268;10.506;2023-05-18T02:15:58;16.58;;;4.40;;
32637;SDS011;19045;52.268;10.506;2023-05-18T02:18:25;12.02;;;4.35;;
32637;SDS011;19045;52.268;10.506;2023-05-18T02:20:56;11.77;;;4.65;;
32637;SDS011;19045;52.268;10.506;2023-05-18T02:23:23;10.82;;;4.13;;
32637;SDS011;19045;52.268;10.506;2023-05-18T02:25:50;18.85;;;5.18;;
32637;SDS011;19045;52.268;10.506;2023-05-18T02:28:19;15.63;;;4.60;;
32637;SDS011;19045;52.268;10.506;2023-05-18T02:30:46;12.80;;;4.55;;
32637;SDS011;19045;52.268;10.506;2023-05-18T02:33:14;17.02;;;4.80;;
32637;SDS011;19045;52.268;10.506;2023-05-18T02:35:41;10.50;;;4.32;;
32637;SDS011;19045;52.268;10.506;2023-05-18T02:38:08;13.88;;;4.57;;
32637;SDS011;19045;52.268;10.506;2023-05-18T02:40:35;13.88;;;4.88;;
32637;SDS011;19045;52.268;10.506;2023-05-18T02:43:01;11.60;;;4.32;;
32637;SDS011;19045;52.268;10.506;2023-05-18T02:45:28;17.83;;;4.40;;
32637;SDS011;19045;52.268;10.506;2023-05-18T02:47:54;11.10;;;4.72;;
32637;SDS011;19045;52.268;10.506;2023-05-18T02:50:22;8.50;;;3.85;;
32637;SDS011;19045;52.268;10.506;2023-05-18T02:52:49;10.65;;;4.63;;
32637;SDS011;19045;52.268;10.506;2023-05-18T02:55:16;13.73;;;4.57;;
32637;SDS011;19045;52.268;10.506;2023-05-18T02:57:43;19.83;;;5.65;;
32637;SDS011;19045;52.268;10.506;2023-05-18T03:00:11;12.57;;;4.43;;
32637;SDS011;19045;52.268;10.506;2023-05-18T03:02:40;12.10;;;4.57;;
32637;SDS011;19045;52.268;10.506;2023-05-18T03:05:08;14.48;;;4.60;;
32637;SDS011;19045;52.268;10.506;2023-05-18T03:07:36;14.13;;;5.32;;
32637;SDS011;19045;52.268;10.506;2023-05-18T03:10:03;15.73;;;4.75;;
32637;SDS011;19045;52.268;10.506;2023-05-18T03:12:31;14.60;;;4.82;;
32637;SDS011;19045;52.268;10.506;2023-05-18T03:14:58;13.23;;;4.85;;
32637;SDS011;19045;52.268;10.506;2023-05-18T03:17:25;8.35;;;4.35;;
32637;SDS011;19045;52.268;10.506;2023-05-18T03:19:51;12.57;;;4.60;;
32637;SDS011;19045;52.268;10.506;2023-05-18T03:22:18;10.98;;;4.90;;
32637;SDS011;19045;52.268;10.506;2023-05-18T03:24:46;10.07;;;4.47;;
32637;SDS011;19045;52.268;10.506;2023-05-18T03:27:15;9.88;;;4.93;;
32637;SDS011;19045;52.268;10.506;2023-05-18T03:29:42;14.75;;;4.70;;
32637;SDS011;19045;52.268;10.506;2023-05-18T03:32:09;10.32;;;3.95;;
32637;SDS011;19045;52.268;10.506;2023-05-18T03:34:36;10.20;;;5.07;;
32637;SDS011;19045;52.268;10.506;2023-05-18T03:37:03;9.32;;;4.68;;
32637;SDS011;19045;52.268;10.506;2023-05-18T03:39:30;14.35;;;4.93;;
32637;SDS011;19045;52.268;10.506;2023-05-18T03:41:58;11.35;;;4.65;;
32637;SDS011;19045;52.268;10.506;2023-05-18T03:44:24;10.63;;;4.85;;
32637;SDS011;19045;52.268;10.506;2023-05-18T03:46:51;13.15;;;5.20;;
32637;SDS011;19045;52.268;10.506;2023-05-18T03:49:18;17.33;;;5.35;;
32637;SDS011;19045;52.268;10.506;2023-05-18T03:51:44;12.63;;;4.78;;
32637;SDS011;19045;52.268;10.506;2023-05-18T03:54:11;13.68;;;4.68;;
32637;SDS011;19045;52.268;10.506;2023-05-18T03:56:38;11.55;;;4.72;;
32637;SDS011;19045;52.268;10.506;2023-05-18T03:59:06;9.48;;;5.25;;
32637;SDS011;19045;52.268;10.506;2023-05-18T04:01:33;9.23;;;4.40;;
32637;SDS011;19045;52.268;10.506;2023-05-18T04:04:00;12.95;;;4.35;;
32637;SDS011;19045;52.268;10.506;2023-05-18T04:06:26;10.48;;;4.35;;
32637;SDS011;19045;52.268;10.506;2023-05-18T04:08:54;10.18;;;4.88;;
32637;SDS011;19045;52.268;10.506;2023-05-18T04:11:20;12.55;;;4.47;;
32637;SDS011;19045;52.268;10.506;2023-05-18T04:13:47;13.77;;;4.80;;
32637;SDS011;19045;52.268;10.506;2023-05-18T04:16:16;10.65;;;4.40;;
32637;SDS011;19045;52.268;10.506;2023-05-18T04:18:43;13.95;;;5.10;;
32637;SDS011;19045;52.268;10.506;2023-05-18T04:21:10;16.52;;;5.15;;
32637;SDS011;19045;52.268;10.506;2023-05-18T04:23:36;12.32;;;5.80;;
32637;SDS011;19045;52.268;10.506;2023-05-18T04:26:04;10.90;;;4.75;;
32637;SDS011;19045;52.268;10.506;2023-05-18T04:28:31;13.32;;;5.40;;
32637;SDS011;19045;52.268;10.506;2023-05-18T04:30:58;9.80;;;4.40;;
32637;SDS011;19045;52.268;10.506;2023-05-18T04:33:27;12.90;;;5.30;;
32637;SDS011;19045;52.268;10.506;2023-05-18T04:35:54;15.45;;;5.93;;
32637;SDS011;19045;52.268;10.506;2023-05-18T04:38:22;11.13;;;4.63;;
32637;SDS011;19045;52.268;10.506;2023-05-18T04:40:49;13.77;;;5.47;;
32637;SDS011;19045;52.268;10.506;2023-05-18T04:43:17;15.05;;;5.75;;
32637;SDS011;19045;52.268;10.506;2023-05-18T04:45:45;13.45;;;5.50;;
32637;SDS011;19045;52.268;10.506;2023-05-18T04:48:14;18.05;;;5.43;;
32637;SDS011;19045;52.268;10.506;2023-05-18T04:50:43;12.38;;;5.20;;
32637;SDS011;19045;52.268;10.506;2023-05-18T04:53:10;11.70;;;4.88;;
32637;SDS011;19045;52.268;10.506;2023-05-18T04:55:37;12.35;;;4.68;;
32637;SDS011;19045;52.268;10.506;2023-05-18T04:58:04;23.73;;;5.05;;
32637;SDS011;19045;52.268;10.506;2023-05-18T05:00:30;12.38;;;5.78;;
32637;SDS011;19045;52.268;10.506;2023-05-18T05:02:57;11.73;;;4.60;;
32637;SDS011;19045;52.268;10.506;2023-05-18T05:05:24;16.88;;;4.40;;
32637;SDS011;19045;52.268;10.506;2023-05-18T05:07:52;20.58;;;5.28;;
32637;SDS011;19045;52.268;10.506;2023-05-18T05:10:19;10.93;;;4.60;;
32637;SDS011;19045;52.268;10.506;2023-05-18T05:12:47;16.40;;;5.60;;
32637;SDS011;19045;52.268;10.506;2023-05-18T05:15:14;13.98;;;4.80;;
32637;SDS011;19045;52.268;10.506;2023-05-18T05:17:41;14.90;;;6.15;;
32637;SDS011;19045;52.268;10.506;2023-05-18T05:20:08;10.30;;;4.78;;
32637;SDS011;19045;52.268;10.506;2023-05-18T05:22:35;12.40;;;5.07;;
32637;SDS011;19045;52.268;10.506;2023-05-18T05:25:03;9.45;;;4.57;;
32637;SDS011;19045;52.268;10.506;2023-05-18T05:27:30;10.73;;;5.13;;
32637;SDS011;19045;52.268;10.506;2023-05-18T05:29:57;9.15;;;4.72;;
32637;SDS011;19045;52.268;10.506;2023-05-18T05:32:23;16.02;;;5.03;;
32637;SDS011;19045;52.268;10.506;2023-05-18T05:34:50;11.40;;;4.13;;
32637;SDS011;19045;52.268;10.506;2023-05-18T05:37:17;12.90;;;4.50;;
32637;SDS011;19045;52.268;10.506;2023-05-18T05:39:44;13.07;;;5.47;;
32637;SDS011;19045;52.268;10.506;2023-05-18T05:42:12;11.32;;;4.65;;
32637;SDS011;19045;52.268;10.506;2023-05-18T05:44:38;15.65;;;4.47;;
32637;SDS011;19045;52.268;10.506;2023-05-18T05:47:06;14.13;;;4.97;;
32637;SDS011;19045;52.268;10.506;2023-05-18T05:49:32;14.65;;;4.43;;
32637;SDS011;19045;52.268;10.506;2023-05-18T05:51:59;11.30;;;4.10;;
32637;SDS011;19045;52.268;10.506;2023-05-18T05:54:26;14.38;;;4.53;;
32637;SDS011;19045;52.268;10.506;2023-05-18T05:56:53;13.57;;;4.15;;
32637;SDS011;19045;52.268;10.506;2023-05-18T05:59:21;9.55;;;3.95;;
32637;SDS011;19045;52.268;10.506;2023-05-18T06:01:47;14.10;;;4.35;;
32637;SDS011;19045;52.268;10.506;2023-05-18T06:04:14;12.00;;;4.25;;
32637;SDS011;19045;52.268;10.506;2023-05-18T06:06:40;12.40;;;4.07;;
32637;SDS011;19045;52.268;10.506;2023-05-18T06:09:08;11.13;;;4.28;;
32637;SDS011;19045;52.268;10.506;2023-05-18T06:11:35;13.77;;;4.05;;
32637;SDS011;19045;52.268;10.506;2023-05-18T06:14:01;12.10;;;4.18;;
32637;SDS011;19045;52.268;10.506;2023-05-18T06:16:30;8.93;;;3.63;;
32637;SDS011;19045;52.268;10.506;2023-05-18T06:18:56;10.35;;;3.70;;
32637;SDS011;19045;52.268;10.506;2023-05-18T06:21:29;8.52;;;3.42;;
32637;SDS011;19045;52.268;10.506;2023-05-18T06:24:13;11.05;;;3.22;;
32637;SDS011;19045;52.268;10.506;2023-05-18T06:26:40;10.55;;;3.35;;
32637;SDS011;19045;52.268;10.506;2023-05-18T06:29:07;13.75;;;3.45;;
32637;SDS011;19045;52.268;10.506;2023-05-18T06:31:35;13.32;;;3.50;;
32637;SDS011;19045;52.268;10.506;2023-05-18T06:34:01;14.48;;;3.20;;
32637;SDS011;19045;52.268;10.506;2023-05-18T06:36:28;9.13;;;3.38;;
32637;SDS011;19045;52.268;10.506;2023-05-18T06:38:55;9.50;;;2.83;;
32637;SDS011;19045;52.268;10.506;2023-05-18T06:41:22;14.90;;;3.47;;
32637;SDS011;19045;52.268;10.506;2023-05-18T06:43:49;14.00;;;3.22;;
32637;SDS011;19045;52.268;10.506;2023-05-18T06:46:19;10.20;;;2.70;;
32637;SDS011;19045;52.268;10.506;2023-05-18T06:48:47;9.70;;;2.80;;
32637;SDS011;19045;52.268;10.506;2023-05-18T06:51:14;11.05;;;2.55;;
32637;SDS011;19045;52.268;10.506;2023-05-18T06:53:41;10.68;;;2.65;;
32637;SDS011;19045;52.268;10.506;2023-05-18T06:56:07;9.70;;;2.65;;
32637;SDS011;19045;52.268;10.506;2023-05-18T06:58:35;14.60;;;3.40;;
32637;SDS011;19045;52.268;10.506;2023-05-18T07:01:02;13.95;;;3.55;;
32637;SDS011;19045;52.268;10.506;2023-05-18T07:03:29;12.13;;;3.10;;
32637;SDS011;19045;52.268;10.506;2023-05-18T07:05:57;11.05;;;3.45;;
32637;SDS011;19045;52.268;10.506;2023-05-18T07:08:24;7.05;;;2.83;;
32637;SDS011;19045;52.268;10.506;2023-05-18T07:10:51;14.45;;;2.60;;
32637;SDS011;19045;52.268;10.506;2023-05-18T07:13:21;12.40;;;3.22;;
32637;SDS011;19045;52.268;10.506;2023-05-18T07:15:48;13.88;;;2.88;;
32637;SDS011;19045;52.268;10.506;2023-05-18T07:18:15;8.80;;;2.25;;
32637;SDS011;19045;52.268;10.506;2023-05-18T07:20:42;9.05;;;2.85;;
32637;SDS011;19045;52.268;10.506;2023-05-18T07:26:06;13.38;;;2.50;;
32637;SDS011;19045;52.268;10.506;2023-05-18T07:28:34;7.43;;;2.25;;
32637;SDS011;19045;52.268;10.506;2023-05-18T07:31:01;8.88;;;2.70;;
32637;SDS011;19045;52.268;10.506;2023-05-18T07:33:28;11.18;;;2.70;;
32637;SDS011;19045;52.268;10.506;2023-05-18T07:38:41;6.55;;;2.08;;
32637;SDS011;19045;52.268;10.506;2023-05-18T07:41:10;9.95;;;2.30;;
32637;SDS011;19045;52.268;10.506;2023-05-18T07:43:36;12.57;;;2.58;;
32637;SDS011;19045;52.268;10.506;2023-05-18T07:46:03;13.48;;;2.38;;
32637;SDS011;19045;52.268;10.506;2023-05-18T07:48:29;11.95;;;3.45;;
32637;SDS011;19045;52.268;10.506;2023-05-18T07:50:56;9.38;;;2.90;;
32637;SDS011;19045;52.268;10.506;2023-05-18T07:53:23;10.23;;;2.55;;
32637;SDS011;19045;52.268;10.506;2023-05-18T07:55:52;10.85;;;2.78;;
32637;SDS011;19045;52.268;10.506;2023-05-18T07:58:19;7.65;;;2.33;;
32637;SDS011;19045;52.268;10.506;2023-05-18T08:00:45;9.32;;;2.40;;
32637;SDS011;19045;52.268;10.506;2023-05-18T08:03:12;14.48;;;3.38;;
32637;SDS011;19045;52.268;10.506;2023-05-18T08:05:39;7.22;;;1.98;;
32637;SDS011;19045;52.268;10.506;2023-05-18T08:08:05;11.10;;;2.53;;
32637;SDS011;19045;52.268;10.506;2023-05-18T08:10:35;9.50;;;2.33;;
32637;SDS011;19045;52.268;10.506;2023-05-18T08:13:03;8.32;;;1.90;;
32637;SDS011;19045;52.268;10.506;2023-05-18T08:15:31;14.65;;;4.65;;
32637;SDS011;19045;52.268;10.506;2023-05-18T08:17:57;14.73;;;4.05;;
32637;SDS011;19045;52.268;10.506;2023-05-18T08:20:24;9.32;;;2.70;;
32637;SDS011;19045;52.268;10.506;2023-05-18T08:22:54;8.55;;;2.05;;
32637;SDS011;19045;52.268;10.506;2023-05-18T08:25:21;9.70;;;2.05;;
32637;SDS011;19045;52.268;10.506;2023-05-18T08:27:47;7.50;;;2.10;;
32637;SDS011;19045;52.268;10.506;2023-05-18T08:30:16;7.53;;;2.53;;
32637;SDS011;19045;52.268;10.506;2023-05-18T08:32:45;8.98;;;2.08;;
32637;SDS011;19045;52.268;10.506;2023-05-18T08:35:12;10.13;;;3.85;;
32637;SDS011;19045;52.268;10.506;2023-05-18T08:37:38;12.48;;;4.45;;
32637;SDS011;19045;52.268;10.506;2023-05-18T08:40:05;8.77;;;2.42;;
32637;SDS011;19045;52.268;10.506;2023-05-18T08:42:37;9.75;;;2.38;;
32637;SDS011;19045;52.268;10.506;2023-05-18T08:45:08;6.68;;;1.48;;
32637;SDS011;19045;52.268;10.506;2023-05-18T08:47:38;10.50;;;2.75;;
32637;SDS011;19045;52.268;10.506;2023-05-18T08:50:07;10.63;;;2.00;;
32637;SDS011;19045;52.268;10.506;2023-05-18T08:52:38;7.95;;;2.00;;
32637;SDS011;19045;52.268;10.506;2023-05-18T08:55:08;7.82;;;2.92;;
32637;SDS011;19045;52.268;10.506;2023-05-18T08:57:36;9.70;;;2.13;;
32637;SDS011;19045;52.268;10.506;2023-05-18T09:00:05;9.93;;;2.75;;
32637;SDS011;19045;52.268;10.506;2023-05-18T09:02:34;11.60;;;3.75;;
32637;SDS011;19045;52.268;10.506;2023-05-18T09:05:03;10.10;;;2.70;;
32637;SDS011;19045;52.268;10.506;2023-05-18T09:07:32;6.05;;;1.90;;
32637;SDS011;19045;52.268;10.506;2023-05-18T09:09:59;11.35;;;2.65;;
32637;SDS011;19045;52.268;10.506;2023-05-18T09:12:28;7.03;;;1.80;;
32637;SDS011;19045;52.268;10.506;2023-05-18T09:14:57;7.95;;;1.88;;
32637;SDS011;19045;52.268;10.506;2023-05-18T09:17:25;8.27;;;2.15;;
32637;SDS011;19045;52.268;10.506;2023-05-18T09:19:52;7.45;;;1.83;;
32637;SDS011;19045;52.268;10.506;2023-05-18T09:22:20;9.15;;;2.53;;
32637;SDS011;19045;52.268;10.506;2023-05-18T09:24:47;9.70;;;2.97;;
32637;SDS011;19045;52.268;10.506;2023-05-18T09:27:14;7.88;;;2.60;;
32637;SDS011;19045;52.268;10.506;2023-05-18T09:29:50;7.38;;;1.70;;
32637;SDS011;19045;52.268;10.506;2023-05-18T09:32:18;6.07;;;2.38;;
32637;SDS011;19045;52.268;10.506;2023-05-18T09:34:44;5.68;;;2.05;;
32637;SDS011;19045;52.268;10.506;2023-05-18T09:37:14;9.55;;;2.50;;
32637;SDS011;19045;52.268;10.506;2023-05-18T09:39:43;8.57;;;1.92;;
32637;SDS011;19045;52.268;10.506;2023-05-18T09:42:09;10.63;;;2.17;;
32637;SDS011;19045;52.268;10.506;2023-05-18T09:44:36;8.60;;;2.20;;
32637;SDS011;19045;52.268;10.506;2023-05-18T09:47:06;11.32;;;1.90;;
32637;SDS011;19045;52.268;10.506;2023-05-18T09:49:34;6.28;;;1.80;;
32637;SDS011;19045;52.268;10.506;2023-05-18T09:52:01;9.23;;;2.45;;
32637;SDS011;19045;52.268;10.506;2023-05-18T09:54:33;7.40;;;1.75;;
32637;SDS011;19045;52.268;10.506;2023-05-18T09:57:03;13.98;;;2.33;;
32637;SDS011;19045;52.268;10.506;2023-05-18T09:59:30;8.20;;;2.20;;
32637;SDS011;19045;52.268;10.506;2023-05-18T10:01:58;7.57;;;2.22;;
32637;SDS011;19045;52.268;10.506;2023-05-18T10:04:33;8.38;;;1.95;;
32637;SDS011;19045;52.268;10.506;2023-05-18T10:07:00;9.35;;;2.42;;
32637;SDS011;19045;52.268;10.506;2023-05-18T10:09:27;8.35;;;2.00;;
32637;SDS011;19045;52.268;10.506;2023-05-18T10:11:55;13.85;;;2.75;;
32637;SDS011;19045;52.268;10.506;2023-05-18T10:14:24;10.57;;;2.20;;
32637;SDS011;19045;52.268;10.506;2023-05-18T10:16:54;6.00;;;1.77;;
32637;SDS011;19045;52.268;10.506;2023-05-18T10:19:21;6.07;;;1.70;;
32637;SDS011;19045;52.268;10.506;2023-05-18T10:21:47;9.95;;;1.80;;
32637;SDS011;19045;52.268;10.506;2023-05-18T10:24:16;5.95;;;1.77;;
32637;SDS011;19045;52.268;10.506;2023-05-18T10:26:45;6.90;;;1.92;;
32637;SDS011;19045;52.268;10.506;2023-05-18T10:29:14;8.68;;;1.63;;
32637;SDS011;19045;52.268;10.506;2023-05-18T10:31:43;12.23;;;2.40;;
32637;SDS011;19045;52.268;10.506;2023-05-18T10:34:10;7.32;;;1.60;;
32637;SDS011;19045;52.268;10.506;2023-05-18T10:36:37;8.73;;;1.83;;
32637;SDS011;19045;52.268;10.506;2023-05-18T10:39:05;5.85;;;1.77;;
32637;SDS011;19045;52.268;10.506;2023-05-18T10:41:33;8.60;;;1.48;;
32637;SDS011;19045;52.268;10.506;2023-05-18T10:44:01;9.73;;;2.00;;
32637;SDS011;19045;52.268;10.506;2023-05-18T10:46:28;9.63;;;2.13;;
32637;SDS011;19045;52.268;10.506;2023-05-18T10:48:57;9.48;;;2.20;;
32637;SDS011;19045;52.268;10.506;2023-05-18T10:51:26;6.03;;;1.63;;
32637;SDS011;19045;52.268;10.506;2023-05-18T10:53:55;6.97;;;1.95;;
32637;SDS011;19045;52.268;10.506;2023-05-18T10:59:05;8.60;;;1.83;;
32637;SDS011;19045;52.268;10.506;2023-05-18T11:01:33;11.60;;;2.15;;
32637;SDS011;19045;52.268;10.506;2023-05-18T11:04:01;10.93;;;1.80;;
32637;SDS011;19045;52.268;10.506;2023-05-18T11:06:29;7.22;;;1.80;;
32637;SDS011;19045;52.268;10.506;2023-05-18T11:08:57;7.88;;;2.15;;
32637;SDS011;19045;52.268;10.506;2023-05-18T11:11:24;11.52;;;2.75;;
32637;SDS011;19045;52.268;10.506;2023-05-18T11:13:54;10.73;;;2.58;;
32637;SDS011;19045;52.268;10.506;2023-05-18T11:16:31;7.95;;;2.38;;
32637;SDS011;19045;52.268;10.506;2023-05-18T11:19:05;7.97;;;1.80;;
32637;SDS011;19045;52.268;10.506;2023-05-18T11:21:49;8.57;;;2.10;;
32637;SDS011;19045;52.268;10.506;2023-05-18T11:24:17;8.63;;;1.80;;
32637;SDS011;19045;52.268;10.506;2023-05-18T11:26:48;5.47;;;1.55;;
32637;SDS011;19045;52.268;10.506;2023-05-18T11:29:20;8.73;;;2.05;;
32637;SDS011;19045;52.268;10.506;2023-05-18T11:31:48;5.55;;;2.05;;
32637;SDS011;19045;52.268;10.506;2023-05-18T11:34:38;10.07;;;2.08;;
32637;SDS011;19045;52.268;10.506;2023-05-18T11:37:13;5.90;;;1.58;;
32637;SDS011;19045;52.268;10.506;2023-05-18T11:39:40;6.78;;;1.83;;
32637;SDS011;19045;52.268;10.506;2023-05-18T11:42:08;8.70;;;1.88;;
32637;SDS011;19045;52.268;10.506;2023-05-18T11:44:36;6.55;;;1.70;;
32637;SDS011;19045;52.268;10.506;2023-05-18T11:47:04;7.97;;;2.15;;
32637;SDS011;19045;52.268;10.506;2023-05-18T11:49:36;9.70;;;1.90;;
32637;SDS011;19045;52.268;10.506;2023-05-18T11:52:15;12.38;;;3.85;;
32637;SDS011;19045;52.268;10.506;2023-05-18T11:54:44;10.35;;;3.70;;
32637;SDS011;19045;52.268;10.506;2023-05-18T11:57:14;8.32;;;2.55;;
32637;SDS011;19045;52.268;10.506;2023-05-18T11:59:43;7.60;;;2.05;;
32637;SDS011;19045;52.268;10.506;2023-05-18T12:02:12;7.32;;;2.05;;
32637;SDS011;19045;52.268;10.506;2023-05-18T12:04:48;10.15;;;2.08;;
32637;SDS011;19045;52.268;10.506;2023-05-18T12:07:18;7.95;;;1.90;;
32637;SDS011;19045;52.268;10.506;2023-05-18T12:09:46;7.28;;;1.75;;
32637;SDS011;19045;52.268;10.506;2023-05-18T12:12:14;10.02;;;2.03;;
32637;SDS011;19045;52.268;10.506;2023-05-18T12:14:44;6.35;;;1.65;;
32637;SDS011;19045;52.268;10.506;2023-05-18T12:17:15;13.63;;;2.72;;
32637;SDS011;19045;52.268;10.506;2023-05-18T12:19:41;6.20;;;2.05;;
32637;SDS011;19045;52.268;10.506;2023-05-18T12:22:10;9.27;;;1.75;;
32637;SDS011;19045;52.268;10.506;2023-05-18T12:24:37;9.88;;;3.25;;
32637;SDS011;19045;52.268;10.506;2023-05-18T12:27:04;10.30;;;2.25;;
32637;SDS011;19045;52.268;10.506;2023-05-18T12:29:32;8.13;;;2.03;;
32637;SDS011;19045;52.268;10.506;2023-05-18T12:32:04;5.30;;;1.45;;
32637;SDS011;19045;52.268;10.506;2023-05-18T12:34:32;7.03;;;1.92;;
32637;SDS011;19045;52.268;10.506;2023-05-18T12:36:58;8.63;;;1.98;;
32637;SDS011;19045;52.268;10.506;2023-05-18T12:39:26;8.38;;;1.98;;
32637;SDS011;19045;52.268;10.506;2023-05-18T12:42:09;6.70;;;1.73;;
32637;SDS011;19045;52.268;10.506;2023-05-18T12:44:36;5.88;;;2.03;;
32637;SDS011;19045;52.268;10.506;2023-05-18T12:47:03;9.27;;;2.10;;
32637;SDS011;19045;52.268;10.506;2023-05-18T12:49:34;12.00;;;2.05;;
32637;SDS011;19045;52.268;10.506;2023-05-18T12:52:06;14.10;;;2.42;;
32637;SDS011;19045;52.268;10.506;2023-05-18T12:54:35;6.90;;;1.95;;
32637;SDS011;19045;52.268;10.506;2023-05-18T12:57:05;10.40;;;2.20;;
32637;SDS011;19045;52.268;10.506;2023-05-18T12:59:34;6.03;;;1.55;;
32637;SDS011;19045;52.268;10.506;2023-05-18T13:02:01;5.93;;;2.00;;
32637;SDS011;19045;52.268;10.506;2023-05-18T13:04:31;8.93;;;3.08;;
32637;SDS011;19045;52.268;10.506;2023-05-18T13:06:59;9.93;;;5.45;;
32637;SDS011;19045;52.268;10.506;2023-05-18T13:09:26;9.05;;;2.85;;
32637;SDS011;19045;52.268;10.506;2023-05-18T13:11:58;7.25;;;2.25;;
32637;SDS011;19045;52.268;10.506;2023-05-18T13:14:26;4.55;;;1.88;;
32637;SDS011;19045;52.268;10.506;2023-05-18T13:16:55;9.60;;;2.20;;
32637;SDS011;19045;52.268;10.506;2023-05-18T13:19:22;9.02;;;3.10;;
32637;SDS011;19045;52.268;10.506;2023-05-18T13:21:54;7.57;;;2.20;;
32637;SDS011;19045;52.268;10.506;2023-05-18T13:24:21;10.75;;;2.03;;
32637;SDS011;19045;52.268;10.506;2023-05-18T13:26:48;7.53;;;1.60;;
32637;SDS011;19045;52.268;10.506;2023-05-18T13:29:16;6.70;;;1.90;;
32637;SDS011;19045;52.268;10.506;2023-05-18T13:31:43;10.52;;;1.92;;
32637;SDS011;19045;52.268;10.506;2023-05-18T13:34:09;7.75;;;1.95;;
32637;SDS011;19045;52.268;10.506;2023-05-18T13:36:36;5.88;;;1.70;;
32637;SDS011;19045;52.268;10.506;2023-05-18T13:39:03;9.68;;;2.03;;
32637;SDS011;19045;52.268;10.506;2023-05-18T13:41:31;6.65;;;2.08;;
32637;SDS011;19045;52.268;10.506;2023-05-18T13:43:59;10.38;;;2.13;;
32637;SDS011;19045;52.268;10.506;2023-05-18T13:46:31;5.20;;;1.80;;
32637;SDS011;19045;52.268;10.506;2023-05-18T13:49:01;10.65;;;2.00;;
32637;SDS011;19045;52.268;10.506;2023-05-18T13:51:28;4.63;;;1.40;;
32637;SDS011;19045;52.268;10.506;2023-05-18T13:53:55;5.85;;;1.42;;
32637;SDS011;19045;52.268;10.506;2023-05-18T13:56:22;5.68;;;1.42;;
32637;SDS011;19045;52.268;10.506;2023-05-18T13:58:48;11.00;;;2.42;;
32637;SDS011;19045;52.268;10.506;2023-05-18T14:01:15;7.35;;;1.27;;
32637;SDS011;19045;52.268;10.506;2023-05-18T14:03:43;6.70;;;2.08;;
32637;SDS011;19045;52.268;10.506;2023-05-18T14:06:09;7.95;;;1.70;;
32637;SDS011;19045;52.268;10.506;2023-05-18T14:08:36;8.32;;;2.17;;
32637;SDS011;19045;52.268;10.506;2023-05-18T14:11:03;5.82;;;1.55;;
32637;SDS011;19045;52.268;10.506;2023-05-18T14:13:29;9.32;;;1.77;;
32637;SDS011;19045;52.268;10.506;2023-05-18T14:15:56;7.50;;;1.77;;
32637;SDS011;19045;52.268;10.506;2023-05-18T14:18:23;8.88;;;2.00;;
32637;SDS011;19045;52.268;10.506;2023-05-18T14:20:50;7.55;;;1.90;;
32637;SDS011;19045;52.268;10.506;2023-05-18T14:23:17;7.82;;;1.90;;
32637;SDS011;19045;52.268;10.506;2023-05-18T14:25:44;7.65;;;1.88;;
32637;SDS011;19045;52.268;10.506;2023-05-18T14:28:10;4.57;;;1.73;;
32637;SDS011;19045;52.268;10.506;2023-05-18T14:30:37;11.75;;;1.98;;
32637;SDS011;19045;52.268;10.506;2023-05-18T14:33:04;6.38;;;1.70;;
32637;SDS011;19045;52.268;10.506;2023-05-18T14:35:31;5.13;;;1.70;;
32637;SDS011;19045;52.268;10.506;2023-05-18T14:37:59;7.45;;;1.60;;
32637;SDS011;19045;52.268;10.506;2023-05-18T14:40:26;6.00;;;1.50;;
32637;SDS011;19045;52.268;10.506;2023-05-18T14:42:53;7.82;;;1.63;;
32637;SDS011;19045;52.268;10.506;2023-05-18T14:45:20;9.68;;;2.20;;